createdAt,value
2019-03-15T00:01:36.400Z,4.10
2019-03-15T00:06:43.465Z,4.10
2019-03-15T00:11:50.528Z,4.10
2019-03-15T00:16:57.607Z,4.10
2019-03-15T00:22:06.104Z,4.10
2019-03-15T00:27:13.569Z,4.10
2019-03-15T00:32:20.655Z,4.10
2019-03-15T00:37:30.440Z,4.10
2019-03-15T00:42:37.824Z,4.10
2019-03-15T00:47:44.930Z,4.10
2019-03-15T00:52:52.000Z,4.10
2019-03-15T00:57:59.009Z,4.10
2019-03-15T01:03:06.405Z,4.10
2019-03-15T01:08:14.056Z,4.10
2019-03-15T01:13:21.759Z,4.00
2019-03-15T01:18:30.414Z,4.10
2019-03-15T01:23:38.037Z,4.00
2019-03-15T01:28:45.535Z,4.00
2019-03-15T01:33:52.779Z,4.00
2019-03-15T01:38:59.867Z,4.00
2019-03-15T01:44:07.628Z,4.00
2019-03-15T01:49:14.847Z,4.00
2019-03-15T01:54:21.948Z,4.00
2019-03-15T01:59:28.996Z,4.00
2019-03-15T02:04:36.094Z,4.00
2019-03-15T02:09:43.977Z,4.00
2019-03-15T02:14:51.675Z,4.00
2019-03-15T02:19:58.835Z,4.10
2019-03-15T02:25:06.302Z,4.00
2019-03-15T02:30:13.925Z,4.00
2019-03-15T02:35:21.809Z,4.00
2019-03-15T02:40:29.733Z,4.00
2019-03-15T02:45:36.887Z,4.00
2019-03-15T02:50:44.067Z,4.00
2019-03-15T02:55:51.516Z,4.00
2019-03-15T03:01:00.611Z,4.00
2019-03-15T03:06:07.717Z,4.00
2019-03-15T03:11:14.810Z,4.00
2019-03-15T03:16:21.923Z,4.00
2019-03-15T03:21:30.173Z,4.00
2019-03-15T03:26:37.334Z,4.00
2019-03-15T03:31:45.505Z,4.00
2019-03-15T03:36:57.274Z,4.00
2019-03-15T03:42:02.220Z,4.00
2019-03-15T03:47:09.421Z,4.00
2019-03-15T03:52:16.481Z,4.00
2019-03-15T03:57:23.736Z,4.00
2019-03-15T04:02:33.043Z,4.00
2019-03-15T04:07:39.481Z,4.00
2019-03-15T04:12:46.554Z,4.00
2019-03-15T04:17:53.609Z,4.00
2019-03-15T04:23:01.109Z,4.00
2019-03-15T04:28:08.069Z,4.00
2019-03-15T04:33:15.109Z,4.00
2019-03-15T04:38:22.371Z,4.00
2019-03-15T04:43:29.426Z,3.90
2019-03-15T04:48:36.391Z,3.90
2019-03-15T04:53:43.458Z,3.90
2019-03-15T04:58:50.528Z,3.90
2019-03-15T05:03:57.522Z,4.00
2019-03-15T05:09:05.170Z,4.00
2019-03-15T05:14:12.326Z,3.90
2019-03-15T05:19:19.381Z,3.90
2019-03-15T05:24:26.486Z,3.90
2019-03-15T05:29:33.547Z,3.90
2019-03-15T05:34:40.741Z,3.90
2019-03-15T05:39:47.728Z,3.90
2019-03-15T05:44:54.782Z,3.90
2019-03-15T05:50:02.212Z,4.00
2019-03-15T05:55:16.519Z,4.00
2019-03-15T06:00:23.833Z,4.00
2019-03-15T06:05:30.934Z,4.10
2019-03-15T06:10:38.323Z,4.10
2019-03-15T06:15:45.932Z,4.10
2019-03-15T06:20:53.104Z,4.10
2019-03-15T06:26:00.540Z,4.10
2019-03-15T06:31:07.756Z,4.10
2019-03-15T06:36:14.897Z,4.20
2019-03-15T06:41:22.061Z,4.20
2019-03-15T06:46:29.419Z,4.50
2019-03-15T06:51:36.493Z,4.60
2019-03-15T06:56:43.643Z,4.80
2019-03-15T07:01:51.172Z,4.90
2019-03-15T07:06:58.277Z,4.90
2019-03-15T07:12:09.761Z,4.90
2019-03-15T07:17:15.525Z,4.90
2019-03-15T07:22:22.541Z,4.90
2019-03-15T07:27:29.641Z,4.90
2019-03-15T07:32:39.731Z,4.80
2019-03-15T07:37:47.682Z,4.80
2019-03-15T07:42:55.180Z,4.80
2019-03-15T07:48:02.236Z,4.80
2019-03-15T07:53:09.849Z,4.80
2019-03-15T07:58:17.777Z,4.90
2019-03-15T08:03:24.821Z,5.00
2019-03-15T08:08:32.110Z,5.00
2019-03-15T08:13:39.326Z,4.90
2019-03-15T08:18:46.377Z,4.80
2019-03-15T08:23:53.486Z,4.80
2019-03-15T08:29:00.994Z,4.80
2019-03-15T08:34:08.304Z,5.00
2019-03-15T08:39:15.348Z,5.10
2019-03-15T08:44:22.446Z,5.20
2019-03-15T08:49:31.685Z,5.50
2019-03-15T08:54:38.820Z,5.80
2019-03-15T08:59:56.616Z,6.20
2019-03-15T09:04:55.850Z,6.30
2019-03-15T09:10:03.641Z,6.20
2019-03-15T09:15:11.221Z,6.00
2019-03-15T09:20:18.287Z,5.90
2019-03-15T09:25:25.540Z,5.90
2019-03-15T09:30:32.731Z,6.10
2019-03-15T09:35:39.879Z,6.20
2019-03-15T09:40:47.054Z,6.40
2019-03-15T09:45:55.538Z,6.60
2019-03-15T09:51:05.122Z,6.60
2019-03-15T09:56:12.322Z,6.70
2019-03-15T10:01:34.338Z,6.60
2019-03-15T10:06:29.144Z,6.50
2019-03-15T10:11:36.251Z,6.50
2019-03-15T10:16:44.662Z,6.50
2019-03-15T10:21:51.763Z,6.60
2019-03-15T10:27:00.117Z,6.60
2019-03-15T10:32:07.355Z,6.50
2019-03-15T10:37:14.527Z,6.80
2019-03-15T10:42:21.637Z,7.10
2019-03-15T10:47:28.947Z,7.10
2019-03-15T10:52:36.074Z,7.10
2019-03-15T10:57:43.474Z,7.30
2019-03-15T11:02:50.551Z,7.10
2019-03-15T11:07:59.172Z,6.80
2019-03-15T11:13:06.384Z,6.70
2019-03-15T11:18:13.429Z,6.70
2019-03-15T11:23:21.620Z,6.70
2019-03-15T11:28:28.725Z,6.70
2019-03-15T11:33:36.015Z,6.80
2019-03-15T11:38:43.963Z,6.90
2019-03-15T11:43:52.019Z,7.10
2019-03-15T11:49:00.482Z,7.20
2019-03-15T11:54:07.590Z,7.10
2019-03-15T11:59:14.760Z,7.10
2019-03-15T12:04:23.105Z,7.10
2019-03-15T12:09:30.643Z,7.30
2019-03-15T12:14:41.112Z,7.40
2019-03-15T12:19:47.445Z,7.70
2019-03-15T12:24:54.553Z,8.10
2019-03-15T12:30:01.547Z,8.00
2019-03-15T12:35:10.207Z,8.30
2019-03-15T12:40:17.740Z,8.10
2019-03-15T12:45:24.841Z,7.60
2019-03-15T12:50:32.291Z,7.40
2019-03-15T12:55:39.583Z,7.50
2019-03-15T13:00:46.672Z,7.70
2019-03-15T13:05:53.765Z,7.80
2019-03-15T13:11:00.815Z,7.50
2019-03-15T13:16:09.141Z,7.20
2019-03-15T13:21:16.435Z,7.10
2019-03-15T13:26:23.412Z,7.10
2019-03-15T13:31:30.431Z,6.90
2019-03-15T13:36:37.606Z,6.80
2019-03-15T13:41:45.579Z,6.60
2019-03-15T13:46:52.872Z,6.30
2019-03-15T13:51:59.969Z,6.00
2019-03-15T13:57:20.175Z,5.90
2019-03-15T14:02:17.060Z,5.80
2019-03-15T14:07:24.056Z,5.70
2019-03-15T14:12:32.327Z,5.70
2019-03-15T14:17:39.507Z,5.70
2019-03-15T14:22:46.704Z,5.90
2019-03-15T14:27:53.941Z,5.90
2019-03-15T14:33:02.030Z,5.80
2019-03-15T14:38:09.230Z,6.00
2019-03-15T14:43:17.734Z,6.20
2019-03-15T14:48:24.808Z,6.90
2019-03-15T14:53:32.543Z,7.30
2019-03-15T14:58:40.873Z,7.00
2019-03-15T15:03:48.634Z,6.80
2019-03-15T15:08:55.673Z,6.90
2019-03-15T15:14:02.760Z,6.80
2019-03-15T15:19:09.833Z,6.70
2019-03-15T15:24:17.035Z,6.50
2019-03-15T15:29:24.183Z,6.40
2019-03-15T15:34:31.471Z,6.40
2019-03-15T15:39:38.711Z,6.30
2019-03-15T15:44:45.824Z,6.20
2019-03-15T15:49:52.994Z,6.10
2019-03-15T15:55:00.361Z,6.10
2019-03-15T16:00:09.351Z,6.10
2019-03-15T16:05:16.528Z,5.90
2019-03-15T16:10:23.765Z,5.80
2019-03-15T16:15:30.846Z,5.80
2019-03-15T16:20:38.250Z,5.70
2019-03-15T16:25:45.564Z,5.70
2019-03-15T16:30:52.749Z,5.70
2019-03-15T16:35:59.841Z,5.60
2019-03-15T16:41:06.910Z,5.60
2019-03-15T16:46:14.106Z,5.60
2019-03-15T16:51:21.183Z,5.60
2019-03-15T16:56:28.991Z,5.60
2019-03-15T17:01:36.584Z,5.60
2019-03-15T17:06:43.629Z,5.50
2019-03-15T17:11:50.711Z,5.50
2019-03-15T17:16:58.107Z,5.40
2019-03-15T17:22:05.981Z,5.40
2019-03-15T17:27:13.281Z,5.40
2019-03-15T17:32:20.512Z,5.40
2019-03-15T17:37:28.644Z,5.40
2019-03-15T17:42:35.845Z,5.40
2019-03-15T17:47:42.930Z,5.30
2019-03-15T17:52:50.100Z,5.20
2019-03-15T17:57:57.214Z,5.10
2019-03-15T18:03:19.324Z,5.10
2019-03-15T18:08:13.620Z,5.10
2019-03-15T18:13:21.412Z,5.10
2019-03-15T18:18:28.979Z,5.10
2019-03-15T18:23:36.180Z,5.10
2019-03-15T18:28:43.512Z,5.20
2019-03-15T18:33:50.662Z,5.20
2019-03-15T18:39:01.400Z,5.10
2019-03-15T18:44:10.200Z,5.20
2019-03-15T18:49:18.680Z,5.20
2019-03-15T18:54:25.978Z,5.10
2019-03-15T18:59:39.810Z,5.20
2019-03-15T19:04:41.772Z,5.20
2019-03-15T19:09:49.226Z,5.20
2019-03-15T19:14:56.275Z,5.20
2019-03-15T19:20:03.534Z,5.10
2019-03-15T19:25:10.647Z,5.20
2019-03-15T19:30:17.841Z,5.30
2019-03-15T19:35:26.020Z,5.40
2019-03-15T19:40:33.319Z,5.40
2019-03-15T19:45:40.412Z,5.10
2019-03-15T19:50:47.474Z,4.70
2019-03-15T19:55:54.859Z,4.50
2019-03-15T20:01:02.352Z,4.30
2019-03-15T20:06:09.431Z,4.20
2019-03-15T20:11:16.576Z,4.10
2019-03-15T20:16:23.641Z,4.00
2019-03-15T20:21:30.823Z,4.00
2019-03-15T20:26:37.918Z,3.90
2019-03-15T20:31:45.033Z,3.90
2019-03-15T20:36:52.011Z,3.70
2019-03-15T20:41:59.183Z,3.60
2019-03-15T20:47:06.380Z,3.70
2019-03-15T20:52:13.456Z,3.70
2019-03-15T20:57:22.478Z,3.70
2019-03-15T21:02:29.551Z,3.70
2019-03-15T21:07:36.865Z,3.70
2019-03-15T21:12:44.056Z,3.90
2019-03-15T21:17:51.215Z,3.90
2019-03-15T21:22:58.317Z,4.00
2019-03-15T21:28:06.360Z,4.10
2019-03-15T21:33:13.461Z,4.10
2019-03-15T21:38:20.527Z,4.00
2019-03-15T21:43:27.627Z,4.00
2019-03-15T21:48:34.692Z,4.10
2019-03-15T21:53:41.670Z,4.30
2019-03-15T21:58:48.823Z,4.30
2019-03-15T22:03:55.934Z,4.30
2019-03-15T22:09:03.054Z,4.40
2019-03-15T22:14:11.102Z,4.50
2019-03-15T22:19:18.168Z,4.50
2019-03-15T22:24:26.493Z,4.40
2019-03-15T22:29:33.546Z,4.50
2019-03-15T22:34:40.603Z,4.30
2019-03-15T22:39:47.692Z,4.30
2019-03-15T22:44:55.015Z,4.30
2019-03-15T22:50:02.165Z,4.20
2019-03-15T22:55:09.660Z,4.10
2019-03-15T23:00:17.941Z,4.00
2019-03-15T23:05:26.903Z,3.90
2019-03-15T23:10:33.963Z,3.90
2019-03-15T23:15:41.450Z,3.70
2019-03-15T23:20:48.586Z,3.50
2019-03-15T23:25:55.643Z,3.40
2019-03-15T23:31:03.750Z,3.40
2019-03-15T23:36:10.939Z,3.30
2019-03-15T23:41:18.457Z,3.10
2019-03-15T23:46:26.500Z,3.00
2019-03-15T23:51:33.683Z,2.90
2019-03-15T23:56:40.801Z,2.90
